sensor_id;sensor_type;location;lat;lon;timestamp;temperature;humidity
68609;SHT31;55581;46.718;7.690;2024-02-14T00:00:07;5.39;73.83
68609;SHT31;55581;46.718;7.690;2024-02-14T00:02:40;5.39;73.41
68609;SHT31;55581;46.718;7.690;2024-02-14T00:05:06;5.39;73.49
68609;SHT31;55581;46.718;7.690;2024-02-14T00:07:34;5.37;74.37
68609;SHT31;55581;46.718;7.690;2024-02-14T00:10:00;5.25;74.59
68609;SHT31;55581;46.718;7.690;2024-02-14T00:12:27;5.25;75.02
68609;SHT31;55581;46.718;7.690;2024-02-14T00:14:53;5.20;75.95
68609;SHT31;55581;46.718;7.690;2024-02-14T00:17:18;5.09;77.30
68609;SHT31;55581;46.718;7.690;2024-02-14T00:19:44;5.04;76.95
68609;SHT31;55581;46.718;7.690;2024-02-14T00:22:09;4.99;77.98
68609;SHT31;55581;46.718;7.690;2024-02-14T00:24:34;4.96;79.18
68609;SHT31;55581;46.718;7.690;2024-02-14T00:27:01;4.95;79.01
68609;SHT31;55581;46.718;7.690;2024-02-14T00:29:30;4.98;77.99
68609;SHT31;55581;46.718;7.690;2024-02-14T00:31:56;5.01;77.68
68609;SHT31;55581;46.718;7.690;2024-02-14T00:34:21;4.95;77.80
68609;SHT31;55581;46.718;7.690;2024-02-14T00:36:46;4.95;77.91
68609;SHT31;55581;46.718;7.690;2024-02-14T00:39:14;4.99;78.34
68609;SHT31;55581;46.718;7.690;2024-02-14T00:41:40;4.93;79.08
68609;SHT31;55581;46.718;7.690;2024-02-14T00:44:05;4.92;79.50
68609;SHT31;55581;46.718;7.690;2024-02-14T00:46:31;4.91;79.34
68609;SHT31;55581;46.718;7.690;2024-02-14T00:48:56;4.88;79.83
68609;SHT31;55581;46.718;7.690;2024-02-14T00:51:22;4.82;79.91
68609;SHT31;55581;46.718;7.690;2024-02-14T00:53:47;4.81;80.30
68609;SHT31;55581;46.718;7.690;2024-02-14T00:56:12;4.75;80.65
68609;SHT31;55581;46.718;7.690;2024-02-14T00:58:38;4.67;80.46
68609;SHT31;55581;46.718;7.690;2024-02-14T01:01:04;4.53;80.75
68609;SHT31;55581;46.718;7.690;2024-02-14T01:03:30;4.43;79.76
68609;SHT31;55581;46.718;7.690;2024-02-14T01:05:56;4.42;80.12
68609;SHT31;55581;46.718;7.690;2024-02-14T01:08:21;4.34;80.19
68609;SHT31;55581;46.718;7.690;2024-02-14T01:10:49;4.34;79.11
68609;SHT31;55581;46.718;7.690;2024-02-14T01:13:18;4.28;78.88
68609;SHT31;55581;46.718;7.690;2024-02-14T01:15:43;4.13;79.52
68609;SHT31;55581;46.718;7.690;2024-02-14T01:18:09;4.05;78.82
68609;SHT31;55581;46.718;7.690;2024-02-14T01:20:35;4.03;79.55
68609;SHT31;55581;46.718;7.690;2024-02-14T01:23:01;3.99;80.56
68609;SHT31;55581;46.718;7.690;2024-02-14T01:25:26;3.94;80.58
68609;SHT31;55581;46.718;7.690;2024-02-14T01:27:51;3.87;80.96
68609;SHT31;55581;46.718;7.690;2024-02-14T01:30:18;3.84;80.66
68609;SHT31;55581;46.718;7.690;2024-02-14T01:32:45;3.84;80.66
68609;SHT31;55581;46.718;7.690;2024-02-14T01:35:11;3.84;80.54
68609;SHT31;55581;46.718;7.690;2024-02-14T01:37:38;3.75;80.72
68609;SHT31;55581;46.718;7.690;2024-02-14T01:40:05;3.79;80.39
68609;SHT31;55581;46.718;7.690;2024-02-14T01:42:32;3.73;79.94
68609;SHT31;55581;46.718;7.690;2024-02-14T01:45:00;3.67;80.47
68609;SHT31;55581;46.718;7.690;2024-02-14T01:47:25;3.63;80.23
68609;SHT31;55581;46.718;7.690;2024-02-14T01:49:51;3.70;80.10
68609;SHT31;55581;46.718;7.690;2024-02-14T01:52:16;3.77;81.00
68609;SHT31;55581;46.718;7.690;2024-02-14T01:54:42;3.82;81.02
68609;SHT31;55581;46.718;7.690;2024-02-14T01:57:08;3.77;81.62
68609;SHT31;55581;46.718;7.690;2024-02-14T01:59:36;3.75;81.83
68609;SHT31;55581;46.718;7.690;2024-02-14T02:02:02;3.73;81.30
68609;SHT31;55581;46.718;7.690;2024-02-14T02:04:27;3.73;81.42
68609;SHT31;55581;46.718;7.690;2024-02-14T02:06:53;3.81;81.45
68609;SHT31;55581;46.718;7.690;2024-02-14T02:09:22;3.88;81.69
68609;SHT31;55581;46.718;7.690;2024-02-14T02:11:49;4.02;82.20
68609;SHT31;55581;46.718;7.690;2024-02-14T02:14:15;4.03;80.33
68609;SHT31;55581;46.718;7.690;2024-02-14T02:16:44;3.87;79.49
68609;SHT31;55581;46.718;7.690;2024-02-14T02:19:09;3.88;80.36
68609;SHT31;55581;46.718;7.690;2024-02-14T02:21:38;3.82;79.64
68609;SHT31;55581;46.718;7.690;2024-02-14T02:24:04;3.81;80.58
68609;SHT31;55581;46.718;7.690;2024-02-14T02:26:31;3.85;79.31
68609;SHT31;55581;46.718;7.690;2024-02-14T02:28:57;3.85;78.93
68609;SHT31;55581;46.718;7.690;2024-02-14T02:31:22;3.85;79.47
68609;SHT31;55581;46.718;7.690;2024-02-14T02:33:48;3.98;80.88
68609;SHT31;55581;46.718;7.690;2024-02-14T02:36:15;4.03;80.95
68609;SHT31;55581;46.718;7.690;2024-02-14T02:38:41;4.09;80.18
68609;SHT31;55581;46.718;7.690;2024-02-14T02:41:06;4.15;79.42
68609;SHT31;55581;46.718;7.690;2024-02-14T02:43:32;4.19;80.56
68609;SHT31;55581;46.718;7.690;2024-02-14T02:46:01;4.28;81.03
68609;SHT31;55581;46.718;7.690;2024-02-14T02:48:26;4.33;81.66
68609;SHT31;55581;46.718;7.690;2024-02-14T02:50:52;4.39;81.55
68609;SHT31;55581;46.718;7.690;2024-02-14T02:53:20;4.50;82.00
68609;SHT31;55581;46.718;7.690;2024-02-14T02:55:46;4.56;81.81
68609;SHT31;55581;46.718;7.690;2024-02-14T02:58:11;4.57;81.94
68609;SHT31;55581;46.718;7.690;2024-02-14T03:00:40;4.64;81.59
68609;SHT31;55581;46.718;7.690;2024-02-14T03:03:08;4.68;81.75
68609;SHT31;55581;46.718;7.690;2024-02-14T03:05:33;4.71;81.79
68609;SHT31;55581;46.718;7.690;2024-02-14T03:07:59;4.61;81.38
68609;SHT31;55581;46.718;7.690;2024-02-14T03:10:29;4.61;81.43
68609;SHT31;55581;46.718;7.690;2024-02-14T03:12:55;4.54;81.96
68609;SHT31;55581;46.718;7.690;2024-02-14T03:15:21;4.56;82.20
68609;SHT31;55581;46.718;7.690;2024-02-14T03:17:52;4.63;81.98
68609;SHT31;55581;46.718;7.690;2024-02-14T03:20:20;4.68;81.86
68609;SHT31;55581;46.718;7.690;2024-02-14T03:22:45;4.71;82.39
68609;SHT31;55581;46.718;7.690;2024-02-14T03:25:16;4.72;82.88
68609;SHT31;55581;46.718;7.690;2024-02-14T03:27:45;4.81;82.31
68609;SHT31;55581;46.718;7.690;2024-02-14T03:30:15;4.78;81.26
68609;SHT31;55581;46.718;7.690;2024-02-14T03:32:41;4.82;81.96
68609;SHT31;55581;46.718;7.690;2024-02-14T03:35:07;4.71;82.10
68609;SHT31;55581;46.718;7.690;2024-02-14T03:37:35;4.65;82.02
68609;SHT31;55581;46.718;7.690;2024-02-14T03:40:03;4.65;81.96
68609;SHT31;55581;46.718;7.690;2024-02-14T03:42:29;4.64;82.06
68609;SHT31;55581;46.718;7.690;2024-02-14T03:44:55;4.57;81.83
68609;SHT31;55581;46.718;7.690;2024-02-14T03:47:31;4.50;81.82
68609;SHT31;55581;46.718;7.690;2024-02-14T03:49:59;4.42;82.27
68609;SHT31;55581;46.718;7.690;2024-02-14T03:52:29;4.36;81.37
68609;SHT31;55581;46.718;7.690;2024-02-14T03:54:57;4.29;81.40
68609;SHT31;55581;46.718;7.690;2024-02-14T03:57:26;4.28;81.51
68609;SHT31;55581;46.718;7.690;2024-02-14T03:59:54;4.23;82.34
68609;SHT31;55581;46.718;7.690;2024-02-14T04:02:20;4.25;82.03
68609;SHT31;55581;46.718;7.690;2024-02-14T04:04:45;4.25;81.48
68609;SHT31;55581;46.718;7.690;2024-02-14T04:07:12;4.28;80.90
68609;SHT31;55581;46.718;7.690;2024-02-14T04:09:37;4.26;79.71
68609;SHT31;55581;46.718;7.690;2024-02-14T04:12:03;4.12;79.15
68609;SHT31;55581;46.718;7.690;2024-02-14T04:14:28;4.08;79.14
68609;SHT31;55581;46.718;7.690;2024-02-14T04:16:54;3.97;78.83
68609;SHT31;55581;46.718;7.690;2024-02-14T04:19:20;3.92;78.86
68609;SHT31;55581;46.718;7.690;2024-02-14T04:21:46;3.89;79.70
68609;SHT31;55581;46.718;7.690;2024-02-14T04:24:12;3.91;77.86
68609;SHT31;55581;46.718;7.690;2024-02-14T04:26:37;3.92;78.89
68609;SHT31;55581;46.718;7.690;2024-02-14T04:29:03;3.92;79.62
68609;SHT31;55581;46.718;7.690;2024-02-14T04:31:28;4.01;80.31
68609;SHT31;55581;46.718;7.690;2024-02-14T04:33:57;4.08;79.79
68609;SHT31;55581;46.718;7.690;2024-02-14T04:36:25;4.09;79.85
68609;SHT31;55581;46.718;7.690;2024-02-14T04:38:50;4.12;79.07
68609;SHT31;55581;46.718;7.690;2024-02-14T04:41:16;4.15;80.27
68609;SHT31;55581;46.718;7.690;2024-02-14T04:43:42;4.16;79.50
68609;SHT31;55581;46.718;7.690;2024-02-14T04:46:08;4.19;78.28
68609;SHT31;55581;46.718;7.690;2024-02-14T04:48:34;4.25;77.98
68609;SHT31;55581;46.718;7.690;2024-02-14T04:51:00;4.29;78.73
68609;SHT31;55581;46.718;7.690;2024-02-14T04:53:25;4.32;78.05
68609;SHT31;55581;46.718;7.690;2024-02-14T04:55:51;4.47;76.26
68609;SHT31;55581;46.718;7.690;2024-02-14T04:58:16;4.54;76.58
68609;SHT31;55581;46.718;7.690;2024-02-14T05:00:42;4.56;76.35
68609;SHT31;55581;46.718;7.690;2024-02-14T05:03:07;4.49;76.59
68609;SHT31;55581;46.718;7.690;2024-02-14T05:05:35;4.54;75.77
68609;SHT31;55581;46.718;7.690;2024-02-14T05:08:03;4.56;76.81
68609;SHT31;55581;46.718;7.690;2024-02-14T05:10:29;4.54;77.17
68609;SHT31;55581;46.718;7.690;2024-02-14T05:12:54;4.72;71.73
68609;SHT31;55581;46.718;7.690;2024-02-14T05:15:20;4.77;71.50
68609;SHT31;55581;46.718;7.690;2024-02-14T05:17:47;4.80;72.20
68609;SHT31;55581;46.718;7.690;2024-02-14T05:20:16;4.91;70.17
68609;SHT31;55581;46.718;7.690;2024-02-14T05:22:42;4.95;71.47
68609;SHT31;55581;46.718;7.690;2024-02-14T05:25:08;4.99;70.92
68609;SHT31;55581;46.718;7.690;2024-02-14T05:27:34;5.04;71.53
68609;SHT31;55581;46.718;7.690;2024-02-14T05:30:03;5.12;70.17
68609;SHT31;55581;46.718;7.690;2024-02-14T05:32:33;5.25;69.30
68609;SHT31;55581;46.718;7.690;2024-02-14T05:34:59;5.19;70.84
68609;SHT31;55581;46.718;7.690;2024-02-14T05:37:25;5.13;71.62
68609;SHT31;55581;46.718;7.690;2024-02-14T05:39:53;5.16;71.58
68609;SHT31;55581;46.718;7.690;2024-02-14T05:42:18;5.13;71.86
68609;SHT31;55581;46.718;7.690;2024-02-14T05:44:44;5.05;73.95
68609;SHT31;55581;46.718;7.690;2024-02-14T05:47:09;4.96;74.79
68609;SHT31;55581;46.718;7.690;2024-02-14T05:49:37;4.93;74.98
68609;SHT31;55581;46.718;7.690;2024-02-14T05:52:03;4.93;75.54
68609;SHT31;55581;46.718;7.690;2024-02-14T05:54:28;4.98;74.59
68609;SHT31;55581;46.718;7.690;2024-02-14T05:56:54;5.09;74.25
68609;SHT31;55581;46.718;7.690;2024-02-14T05:59:19;5.15;71.73
68609;SHT31;55581;46.718;7.690;2024-02-14T06:01:47;5.25;74.58
68609;SHT31;55581;46.718;7.690;2024-02-14T06:04:12;5.25;71.90
68609;SHT31;55581;46.718;7.690;2024-02-14T06:06:38;5.26;70.95
68609;SHT31;55581;46.718;7.690;2024-02-14T06:09:03;5.37;71.64
68609;SHT31;55581;46.718;7.690;2024-02-14T06:11:35;5.43;65.10
68609;SHT31;55581;46.718;7.690;2024-02-14T06:14:00;5.63;64.34
68609;SHT31;55581;46.718;7.690;2024-02-14T06:16:25;5.70;64.75
68609;SHT31;55581;46.718;7.690;2024-02-14T06:18:51;5.64;69.06
68609;SHT31;55581;46.718;7.690;2024-02-14T06:21:16;5.58;71.49
68609;SHT31;55581;46.718;7.690;2024-02-14T06:23:41;5.56;73.01
68609;SHT31;55581;46.718;7.690;2024-02-14T06:26:07;5.51;73.55
68609;SHT31;55581;46.718;7.690;2024-02-14T06:28:32;5.60;74.74
68609;SHT31;55581;46.718;7.690;2024-02-14T06:30:58;5.63;76.78
68609;SHT31;55581;46.718;7.690;2024-02-14T06:33:23;5.54;77.56
68609;SHT31;55581;46.718;7.690;2024-02-14T06:35:51;5.50;77.03
68609;SHT31;55581;46.718;7.690;2024-02-14T06:38:17;5.50;76.51
68609;SHT31;55581;46.718;7.690;2024-02-14T06:40:42;5.39;76.37
68609;SHT31;55581;46.718;7.690;2024-02-14T06:43:09;5.43;76.02
68609;SHT31;55581;46.718;7.690;2024-02-14T06:45:34;5.40;75.84
68609;SHT31;55581;46.718;7.690;2024-02-14T06:48:02;5.33;76.10
68609;SHT31;55581;46.718;7.690;2024-02-14T06:50:27;5.37;75.43
68609;SHT31;55581;46.718;7.690;2024-02-14T06:52:54;5.39;76.34
68609;SHT31;55581;46.718;7.690;2024-02-14T06:55:23;5.30;76.71
68609;SHT31;55581;46.718;7.690;2024-02-14T06:57:48;5.26;77.23
68609;SHT31;55581;46.718;7.690;2024-02-14T07:00:14;5.25;76.99
68609;SHT31;55581;46.718;7.690;2024-02-14T07:02:41;5.27;77.34
68609;SHT31;55581;46.718;7.690;2024-02-14T07:05:08;5.29;78.34
68609;SHT31;55581;46.718;7.690;2024-02-14T07:07:37;5.42;75.78
68609;SHT31;55581;46.718;7.690;2024-02-14T07:10:03;5.57;74.69
68609;SHT31;55581;46.718;7.690;2024-02-14T07:12:31;5.67;73.78
68609;SHT31;55581;46.718;7.690;2024-02-14T07:14:57;5.71;74.16
68609;SHT31;55581;46.718;7.690;2024-02-14T07:17:22;5.67;73.06
68609;SHT31;55581;46.718;7.690;2024-02-14T07:19:50;5.67;73.89
68609;SHT31;55581;46.718;7.690;2024-02-14T07:22:16;5.68;74.18
68609;SHT31;55581;46.718;7.690;2024-02-14T07:24:46;5.71;74.92
68609;SHT31;55581;46.718;7.690;2024-02-14T07:27:13;5.67;76.71
68609;SHT31;55581;46.718;7.690;2024-02-14T07:29:39;5.65;76.56
68609;SHT31;55581;46.718;7.690;2024-02-14T07:32:04;5.74;77.30
68609;SHT31;55581;46.718;7.690;2024-02-14T07:34:31;5.65;78.62
68609;SHT31;55581;46.718;7.690;2024-02-14T07:36:57;5.77;77.64
68609;SHT31;55581;46.718;7.690;2024-02-14T07:39:25;5.81;78.14
68609;SHT31;55581;46.718;7.690;2024-02-14T07:41:50;5.90;78.44
68609;SHT31;55581;46.718;7.690;2024-02-14T07:44:16;5.98;78.07
68609;SHT31;55581;46.718;7.690;2024-02-14T07:46:42;5.97;77.50
68609;SHT31;55581;46.718;7.690;2024-02-14T07:49:07;6.03;76.37
68609;SHT31;55581;46.718;7.690;2024-02-14T07:51:35;6.08;74.71
68609;SHT31;55581;46.718;7.690;2024-02-14T07:54:03;6.11;74.94
68609;SHT31;55581;46.718;7.690;2024-02-14T07:56:29;6.16;75.16
68609;SHT31;55581;46.718;7.690;2024-02-14T07:58:55;6.08;74.32
68609;SHT31;55581;46.718;7.690;2024-02-14T08:01:20;6.13;74.35
68609;SHT31;55581;46.718;7.690;2024-02-14T08:03:46;6.18;75.27
68609;SHT31;55581;46.718;7.690;2024-02-14T08:06:11;6.19;74.78
68609;SHT31;55581;46.718;7.690;2024-02-14T08:08:37;6.22;74.33
68609;SHT31;55581;46.718;7.690;2024-02-14T08:11:03;6.25;73.24
68609;SHT31;55581;46.718;7.690;2024-02-14T08:13:31;6.29;72.38
68609;SHT31;55581;46.718;7.690;2024-02-14T08:15:56;6.40;72.26
68609;SHT31;55581;46.718;7.690;2024-02-14T08:18:23;6.47;71.22
68609;SHT31;55581;46.718;7.690;2024-02-14T08:20:52;6.54;72.29
68609;SHT31;55581;46.718;7.690;2024-02-14T08:23:18;6.68;72.02
68609;SHT31;55581;46.718;7.690;2024-02-14T08:25:45;6.87;71.92
68609;SHT31;55581;46.718;7.690;2024-02-14T08:28:11;7.11;69.89
68609;SHT31;55581;46.718;7.690;2024-02-14T08:30:36;7.12;69.22
68609;SHT31;55581;46.718;7.690;2024-02-14T08:33:03;7.19;69.58
68609;SHT31;55581;46.718;7.690;2024-02-14T08:35:28;7.16;69.97
68609;SHT31;55581;46.718;7.690;2024-02-14T08:37:54;7.23;69.82
68609;SHT31;55581;46.718;7.690;2024-02-14T08:40:20;7.18;69.49
68609;SHT31;55581;46.718;7.690;2024-02-14T08:42:47;7.11;68.62
68609;SHT31;55581;46.718;7.690;2024-02-14T08:45:13;7.19;69.39
68609;SHT31;55581;46.718;7.690;2024-02-14T08:47:38;7.24;68.39
68609;SHT31;55581;46.718;7.690;2024-02-14T08:50:04;7.33;68.83
68609;SHT31;55581;46.718;7.690;2024-02-14T08:52:32;7.47;68.25
68609;SHT31;55581;46.718;7.690;2024-02-14T08:54:58;7.61;67.21
68609;SHT31;55581;46.718;7.690;2024-02-14T08:57:23;7.68;65.63
68609;SHT31;55581;46.718;7.690;2024-02-14T08:59:49;7.78;67.28
68609;SHT31;55581;46.718;7.690;2024-02-14T09:02:17;7.85;63.67
68609;SHT31;55581;46.718;7.690;2024-02-14T09:04:42;7.85;62.31
68609;SHT31;55581;46.718;7.690;2024-02-14T09:07:10;8.01;61.13
68609;SHT31;55581;46.718;7.690;2024-02-14T09:09:35;8.23;59.30
68609;SHT31;55581;46.718;7.690;2024-02-14T09:12:03;8.40;58.35
68609;SHT31;55581;46.718;7.690;2024-02-14T09:14:29;8.43;58.43
68609;SHT31;55581;46.718;7.690;2024-02-14T09:16:55;8.42;56.14
68609;SHT31;55581;46.718;7.690;2024-02-14T09:19:21;8.70;54.84
68609;SHT31;55581;46.718;7.690;2024-02-14T09:21:46;8.74;54.66
68609;SHT31;55581;46.718;7.690;2024-02-14T09:24:12;8.97;54.26
68609;SHT31;55581;46.718;7.690;2024-02-14T09:26:38;9.04;52.70
68609;SHT31;55581;46.718;7.690;2024-02-14T09:29:03;9.20;51.53
68609;SHT31;55581;46.718;7.690;2024-02-14T09:31:30;9.36;52.52
68609;SHT31;55581;46.718;7.690;2024-02-14T09:33:55;9.53;51.11
68609;SHT31;55581;46.718;7.690;2024-02-14T09:36:24;9.57;52.81
68609;SHT31;55581;46.718;7.690;2024-02-14T09:38:52;9.61;52.78
68609;SHT31;55581;46.718;7.690;2024-02-14T09:41:25;9.73;52.45
68609;SHT31;55581;46.718;7.690;2024-02-14T09:43:53;9.74;51.85
68609;SHT31;55581;46.718;7.690;2024-02-14T09:46:21;9.63;50.87
68609;SHT31;55581;46.718;7.690;2024-02-14T09:48:52;9.73;49.28
68609;SHT31;55581;46.718;7.690;2024-02-14T09:51:17;9.75;53.59
68609;SHT31;55581;46.718;7.690;2024-02-14T09:53:43;9.82;52.33
68609;SHT31;55581;46.718;7.690;2024-02-14T09:56:10;9.88;53.32
68609;SHT31;55581;46.718;7.690;2024-02-14T09:58:36;9.98;54.55
68609;SHT31;55581;46.718;7.690;2024-02-14T10:01:02;10.01;52.88
68609;SHT31;55581;46.718;7.690;2024-02-14T10:03:31;9.97;54.10
68609;SHT31;55581;46.718;7.690;2024-02-14T10:05:57;9.92;53.87
68609;SHT31;55581;46.718;7.690;2024-02-14T10:08:26;10.13;53.58
68609;SHT31;55581;46.718;7.690;2024-02-14T10:10:51;10.15;53.39
68609;SHT31;55581;46.718;7.690;2024-02-14T10:13:17;10.15;51.74
68609;SHT31;55581;46.718;7.690;2024-02-14T10:15:45;10.11;52.35
68609;SHT31;55581;46.718;7.690;2024-02-14T10:18:13;10.26;53.54
68609;SHT31;55581;46.718;7.690;2024-02-14T10:20:39;10.35;52.81
68609;SHT31;55581;46.718;7.690;2024-02-14T10:23:10;10.33;53.17
68609;SHT31;55581;46.718;7.690;2024-02-14T10:25:36;10.52;55.49
68609;SHT31;55581;46.718;7.690;2024-02-14T10:28:06;10.55;56.53
68609;SHT31;55581;46.718;7.690;2024-02-14T10:30:36;10.49;55.37
68609;SHT31;55581;46.718;7.690;2024-02-14T10:33:03;10.42;53.35
68609;SHT31;55581;46.718;7.690;2024-02-14T10:35:30;10.39;56.06
68609;SHT31;55581;46.718;7.690;2024-02-14T10:37:58;10.40;56.62
68609;SHT31;55581;46.718;7.690;2024-02-14T10:40:27;10.37;54.98
68609;SHT31;55581;46.718;7.690;2024-02-14T10:42:54;10.40;53.65
68609;SHT31;55581;46.718;7.690;2024-02-14T10:45:24;10.43;53.18
68609;SHT31;55581;46.718;7.690;2024-02-14T10:47:53;10.64;50.17
68609;SHT31;55581;46.718;7.690;2024-02-14T10:50:21;10.63;48.88
68609;SHT31;55581;46.718;7.690;2024-02-14T10:52:48;10.81;48.76
68609;SHT31;55581;46.718;7.690;2024-02-14T10:55:16;10.87;48.84
68609;SHT31;55581;46.718;7.690;2024-02-14T10:57:43;11.02;47.79
68609;SHT31;55581;46.718;7.690;2024-02-14T11:00:14;11.14;48.15
68609;SHT31;55581;46.718;7.690;2024-02-14T11:02:41;11.38;49.12
68609;SHT31;55581;46.718;7.690;2024-02-14T11:05:14;11.56;48.75
68609;SHT31;55581;46.718;7.690;2024-02-14T11:07:46;11.65;44.61
68609;SHT31;55581;46.718;7.690;2024-02-14T11:10:16;11.70;44.67
68609;SHT31;55581;46.718;7.690;2024-02-14T11:12:42;11.90;45.78
68609;SHT31;55581;46.718;7.690;2024-02-14T11:15:20;12.04;50.31
68609;SHT31;55581;46.718;7.690;2024-02-14T11:17:49;12.06;55.69
68609;SHT31;55581;46.718;7.690;2024-02-14T11:20:20;12.12;54.22
68609;SHT31;55581;46.718;7.690;2024-02-14T11:22:56;11.91;52.27
68609;SHT31;55581;46.718;7.690;2024-02-14T11:25:33;11.97;49.99
68609;SHT31;55581;46.718;7.690;2024-02-14T11:28:16;11.76;48.58
68609;SHT31;55581;46.718;7.690;2024-02-14T11:30:44;11.47;49.66
68609;SHT31;55581;46.718;7.690;2024-02-14T11:35:54;11.66;48.44
68609;SHT31;55581;46.718;7.690;2024-02-14T11:38:21;11.60;48.78
68609;SHT31;55581;46.718;7.690;2024-02-14T11:40:47;11.62;49.41
68609;SHT31;55581;46.718;7.690;2024-02-14T11:43:15;11.67;49.72
68609;SHT31;55581;46.718;7.690;2024-02-14T11:45:43;11.76;47.84
68609;SHT31;55581;46.718;7.690;2024-02-14T11:48:13;11.88;49.35
68609;SHT31;55581;46.718;7.690;2024-02-14T11:50:40;11.98;48.47
68609;SHT31;55581;46.718;7.690;2024-02-14T11:53:06;12.22;50.24
68609;SHT31;55581;46.718;7.690;2024-02-14T11:55:39;12.45;51.50
68609;SHT31;55581;46.718;7.690;2024-02-14T11:58:09;12.46;48.74
68609;SHT31;55581;46.718;7.690;2024-02-14T12:00:45;12.59;49.71
68609;SHT31;55581;46.718;7.690;2024-02-14T12:03:22;12.56;47.78
68609;SHT31;55581;46.718;7.690;2024-02-14T12:05:51;12.67;47.54
68609;SHT31;55581;46.718;7.690;2024-02-14T12:08:18;12.75;46.33
68609;SHT31;55581;46.718;7.690;2024-02-14T12:10:44;12.66;47.70
68609;SHT31;55581;46.718;7.690;2024-02-14T12:13:17;12.72;48.68
68609;SHT31;55581;46.718;7.690;2024-02-14T12:15:50;12.77;47.32
68609;SHT31;55581;46.718;7.690;2024-02-14T12:18:16;12.90;45.19
68609;SHT31;55581;46.718;7.690;2024-02-14T12:20:44;12.80;46.12
68609;SHT31;55581;46.718;7.690;2024-02-14T12:23:15;12.72;46.95
68609;SHT31;55581;46.718;7.690;2024-02-14T12:25:42;12.66;45.90
68609;SHT31;55581;46.718;7.690;2024-02-14T12:28:08;12.69;45.64
68609;SHT31;55581;46.718;7.690;2024-02-14T12:30:43;12.56;47.08
68609;SHT31;55581;46.718;7.690;2024-02-14T12:33:16;12.63;47.04
68609;SHT31;55581;46.718;7.690;2024-02-14T12:35:48;12.83;47.15
68609;SHT31;55581;46.718;7.690;2024-02-14T12:38:15;12.86;47.65
68609;SHT31;55581;46.718;7.690;2024-02-14T12:40:41;12.86;49.03
68609;SHT31;55581;46.718;7.690;2024-02-14T12:43:08;13.05;50.41
68609;SHT31;55581;46.718;7.690;2024-02-14T12:45:33;13.01;49.17
68609;SHT31;55581;46.718;7.690;2024-02-14T12:48:01;13.00;47.45
68609;SHT31;55581;46.718;7.690;2024-02-14T12:50:26;12.83;46.71
68609;SHT31;55581;46.718;7.690;2024-02-14T12:52:52;12.80;47.02
68609;SHT31;55581;46.718;7.690;2024-02-14T12:55:17;12.72;47.88
68609;SHT31;55581;46.718;7.690;2024-02-14T12:57:44;12.75;48.35
68609;SHT31;55581;46.718;7.690;2024-02-14T13:00:10;12.61;47.06
68609;SHT31;55581;46.718;7.690;2024-02-14T13:02:36;12.61;49.27
68609;SHT31;55581;46.718;7.690;2024-02-14T13:05:04;12.64;50.99
68609;SHT31;55581;46.718;7.690;2024-02-14T13:07:30;12.66;49.45
68609;SHT31;55581;46.718;7.690;2024-02-14T13:10:00;12.57;49.39
68609;SHT31;55581;46.718;7.690;2024-02-14T13:12:26;12.66;48.54
68609;SHT31;55581;46.718;7.690;2024-02-14T13:14:51;12.64;50.22
68609;SHT31;55581;46.718;7.690;2024-02-14T13:17:17;12.61;50.00
68609;SHT31;55581;46.718;7.690;2024-02-14T13:19:42;12.64;49.41
68609;SHT31;55581;46.718;7.690;2024-02-14T13:22:08;12.64;50.93
68609;SHT31;55581;46.718;7.690;2024-02-14T13:24:34;12.70;50.03
68609;SHT31;55581;46.718;7.690;2024-02-14T13:26:59;12.63;48.84
68609;SHT31;55581;46.718;7.690;2024-02-14T13:29:25;12.55;48.21
68609;SHT31;55581;46.718;7.690;2024-02-14T13:31:50;12.45;48.99
68609;SHT31;55581;46.718;7.690;2024-02-14T13:34:16;12.38;49.81
68609;SHT31;55581;46.718;7.690;2024-02-14T13:36:44;12.26;49.44
68609;SHT31;55581;46.718;7.690;2024-02-14T13:39:10;12.24;49.56
68609;SHT31;55581;46.718;7.690;2024-02-14T13:41:37;12.29;49.54
68609;SHT31;55581;46.718;7.690;2024-02-14T13:44:04;12.35;50.48
68609;SHT31;55581;46.718;7.690;2024-02-14T13:46:29;12.43;50.55
68609;SHT31;55581;46.718;7.690;2024-02-14T13:48:55;12.46;50.75
68609;SHT31;55581;46.718;7.690;2024-02-14T13:51:23;12.50;50.80
68609;SHT31;55581;46.718;7.690;2024-02-14T13:53:49;12.60;50.89
68609;SHT31;55581;46.718;7.690;2024-02-14T13:56:14;12.75;51.15
68609;SHT31;55581;46.718;7.690;2024-02-14T13:58:43;12.84;51.18
68609;SHT31;55581;46.718;7.690;2024-02-14T14:01:09;12.98;52.95
68609;SHT31;55581;46.718;7.690;2024-02-14T14:03:35;13.00;53.11
68609;SHT31;55581;46.718;7.690;2024-02-14T14:06:04;12.93;53.26
68609;SHT31;55581;46.718;7.690;2024-02-14T14:08:31;12.95;53.54
68609;SHT31;55581;46.718;7.690;2024-02-14T14:10:56;12.88;54.69
68609;SHT31;55581;46.718;7.690;2024-02-14T14:13:22;12.88;52.49
68609;SHT31;55581;46.718;7.690;2024-02-14T14:15:47;12.95;51.21
68609;SHT31;55581;46.718;7.690;2024-02-14T14:18:13;13.04;51.34
68609;SHT31;55581;46.718;7.690;2024-02-14T14:20:38;13.14;51.14
68609;SHT31;55581;46.718;7.690;2024-02-14T14:23:04;13.28;53.00
68609;SHT31;55581;46.718;7.690;2024-02-14T14:25:29;13.36;54.31
68609;SHT31;55581;46.718;7.690;2024-02-14T14:27:58;13.38;52.04
68609;SHT31;55581;46.718;7.690;2024-02-14T14:30:24;13.36;50.32
68609;SHT31;55581;46.718;7.690;2024-02-14T14:32:49;13.32;49.61
68609;SHT31;55581;46.718;7.690;2024-02-14T14:35:15;13.26;50.70
68609;SHT31;55581;46.718;7.690;2024-02-14T14:37:40;13.31;51.45
68609;SHT31;55581;46.718;7.690;2024-02-14T14:40:08;13.32;52.67
68609;SHT31;55581;46.718;7.690;2024-02-14T14:42:35;13.36;52.23
68609;SHT31;55581;46.718;7.690;2024-02-14T14:45:07;13.52;49.92
68609;SHT31;55581;46.718;7.690;2024-02-14T14:47:32;13.56;50.32
68609;SHT31;55581;46.718;7.690;2024-02-14T14:50:00;13.53;55.06
68609;SHT31;55581;46.718;7.690;2024-02-14T14:52:25;13.52;55.55
68609;SHT31;55581;46.718;7.690;2024-02-14T14:54:50;13.52;52.17
68609;SHT31;55581;46.718;7.690;2024-02-14T14:57:16;13.60;50.58
68609;SHT31;55581;46.718;7.690;2024-02-14T14:59:41;13.56;50.70
68609;SHT31;55581;46.718;7.690;2024-02-14T15:02:08;13.53;51.14
68609;SHT31;55581;46.718;7.690;2024-02-14T15:04:33;13.51;50.65
68609;SHT31;55581;46.718;7.690;2024-02-14T15:07:02;13.41;50.84
68609;SHT31;55581;46.718;7.690;2024-02-14T15:09:28;13.32;50.70
68609;SHT31;55581;46.718;7.690;2024-02-14T15:11:56;13.25;51.59
68609;SHT31;55581;46.718;7.690;2024-02-14T15:14:22;13.18;52.93
68609;SHT31;55581;46.718;7.690;2024-02-14T15:16:47;13.11;52.75
68609;SHT31;55581;46.718;7.690;2024-02-14T15:19:13;13.03;57.24
68609;SHT31;55581;46.718;7.690;2024-02-14T15:21:38;13.00;55.54
68609;SHT31;55581;46.718;7.690;2024-02-14T15:24:04;12.94;53.94
68609;SHT31;55581;46.718;7.690;2024-02-14T15:26:30;12.84;57.21
68609;SHT31;55581;46.718;7.690;2024-02-14T15:29:04;12.79;57.28
68609;SHT31;55581;46.718;7.690;2024-02-14T15:31:48;12.73;57.65
68609;SHT31;55581;46.718;7.690;2024-02-14T15:34:32;12.64;59.93
68609;SHT31;55581;46.718;7.690;2024-02-14T15:36:57;12.56;61.29
68609;SHT31;55581;46.718;7.690;2024-02-14T15:39:23;12.48;61.34